Airfield :
LOGIN :

Register | Disclaimer

   EN    FR    IT 

 










Legend :    VFR   Marginal VFR   IFR   Intensive IFR   Very Intensive IFR
Visi :
Ceiling :
>= 8 km
>= 3000ft
5 to 8 km
1000 to 3000 ft
1500m to 5 km
500 to 1000 ft
800 to 1500m
200 to 500 ft
< 800m
< 200 ft
Symbols :   Thunderstorms  Fog  Heavy snow  Heavy precipitations  Wind > 20 kt
SIGMETs :     Misc.  Thunderstorms  Icing  Turbulence  Mountain Waves  Volcanic Ashes







- Airport Elevation : 17 ft
- IATA code : MPL
- Download approach charts


LFMT - Montpellier Méditerranée

CURRENT METAR :
  • 201730Z AUTO 22003KT 190V260 CAVOK 30/16 Q1015 NOSIG

EXPIRED METARs :
  • 201700Z AUTO 22005KT 180V240 CAVOK 32/15 Q1015 NOSIG
  • 201630Z AUTO 21005KT 180V240 CAVOK 32/15 Q1014 NOSIG
  • 201600Z AUTO 21008KT CAVOK 33/15 Q1014 NOSIG
  • 201530Z AUTO 21008KT CAVOK 32/14 Q1014 NOSIG
  • 201500Z AUTO 18007KT 100V210 CAVOK 34/15 Q1014 NOSIG

TAF TAF LFMT
Valid from the 20 at 15:00 until the 21 at 15:00 UTC


201400Z 2015/2115 36012KT CAVOK
TEMPO 2015/2020 20012KT
TEMPO 2020/2109 VRB02KT
BECMG 2109/2112 16012KT
ATIS : +33 4 67 13 11 70
No reported NOTAMs for that airfield.
2 SIGMETs reported for the Marseille FIR (LFMM) :
 
SIGMET 3  cancelation
LFMM SIGMET 4 VALID 201735/201800 LFPW
LFMM MARSEILLE FIR/UIR CNL SIGMET 3 201700/201800=
SIGMET 3  CANCELED :
Embedded thunderstorms
LFMM SIGMET 3 VALID 201700/201800 LFPW
LFMM MARSEILLE FIR/UIR EMBD TS OBS WI N4415 E00545 - N4330 E00700 - N4300 E00615 - N4345 E00500 - N4415 E00545 TOP FL400 MOV SW 10KT NC=



MET'MAP, your aeronautical weather chart ! - Copyright ORBIFLY December 2007 - Disclaimer

ORBIFLY MET'MAP TEAM :

Programming & Development : Alexandra Zaïnal
Concept & Development : Baudouin d'Aumeries
Co-Development & Prog : Marc-Olivier Méhu
Technical & hardware support : Manuel Goepfert

Contact : metmap@orbifly.com




SOURCES & CREDITS :

   NOAA